sensor_id;sensor_type;location;lat;lon;timestamp;P1;durP1;ratioP1;P2;durP2;ratioP2
21721;SDS011;11023;48.274;7.794;2024-03-02T00:00:08;1.45;;;1.10;;
21721;SDS011;11023;48.274;7.794;2024-03-02T00:02:41;1.20;;;0.80;;
21721;SDS011;11023;48.274;7.794;2024-03-02T00:05:07;2.13;;;1.02;;
21721;SDS011;11023;48.274;7.794;2024-03-02T00:07:36;1.58;;;0.80;;
21721;SDS011;11023;48.274;7.794;2024-03-02T00:10:04;2.55;;;1.05;;
21721;SDS011;11023;48.274;7.794;2024-03-02T00:12:36;2.47;;;1.42;;
21721;SDS011;11023;48.274;7.794;2024-03-02T00:17:55;2.72;;;1.45;;
21721;SDS011;11023;48.274;7.794;2024-03-02T00:20:22;3.35;;;1.77;;
21721;SDS011;11023;48.274;7.794;2024-03-02T00:22:48;2.40;;;1.20;;
21721;SDS011;11023;48.274;7.794;2024-03-02T00:25:20;2.78;;;1.50;;
21721;SDS011;11023;48.274;7.794;2024-03-02T00:27:49;1.70;;;1.27;;
21721;SDS011;11023;48.274;7.794;2024-03-02T00:33:15;2.80;;;1.08;;
21721;SDS011;11023;48.274;7.794;2024-03-02T00:35:43;2.63;;;1.27;;
21721;SDS011;11023;48.274;7.794;2024-03-02T00:38:10;3.53;;;1.35;;
21721;SDS011;11023;48.274;7.794;2024-03-02T00:40:37;2.10;;;1.40;;
21721;SDS011;11023;48.274;7.794;2024-03-02T00:43:02;9.05;;;1.75;;
21721;SDS011;11023;48.274;7.794;2024-03-02T00:45:29;3.53;;;1.83;;
21721;SDS011;11023;48.274;7.794;2024-03-02T00:47:55;2.97;;;1.70;;
21721;SDS011;11023;48.274;7.794;2024-03-02T00:50:21;3.53;;;1.80;;
21721;SDS011;11023;48.274;7.794;2024-03-02T00:52:47;2.28;;;1.27;;
21721;SDS011;11023;48.274;7.794;2024-03-02T00:55:15;2.17;;;1.35;;
21721;SDS011;11023;48.274;7.794;2024-03-02T00:57:41;2.33;;;1.30;;
21721;SDS011;11023;48.274;7.794;2024-03-02T01:00:08;3.55;;;1.40;;
21721;SDS011;11023;48.274;7.794;2024-03-02T01:02:37;3.70;;;2.22;;
21721;SDS011;11023;48.274;7.794;2024-03-02T01:05:03;3.95;;;1.70;;
21721;SDS011;11023;48.274;7.794;2024-03-02T01:07:31;3.83;;;2.25;;
21721;SDS011;11023;48.274;7.794;2024-03-02T01:09:56;4.72;;;2.10;;
21721;SDS011;11023;48.274;7.794;2024-03-02T01:12:22;2.50;;;1.60;;
21721;SDS011;11023;48.274;7.794;2024-03-02T01:14:49;2.88;;;1.25;;
21721;SDS011;11023;48.274;7.794;2024-03-02T01:17:15;2.15;;;1.40;;
21721;SDS011;11023;48.274;7.794;2024-03-02T01:19:41;3.58;;;1.48;;
21721;SDS011;11023;48.274;7.794;2024-03-02T01:22:07;2.25;;;1.30;;
21721;SDS011;11023;48.274;7.794;2024-03-02T01:24:33;3.38;;;1.50;;
21721;SDS011;11023;48.274;7.794;2024-03-02T01:26:59;2.80;;;1.35;;
21721;SDS011;11023;48.274;7.794;2024-03-02T01:29:24;1.70;;;1.33;;
21721;SDS011;11023;48.274;7.794;2024-03-02T01:31:50;3.92;;;1.55;;
21721;SDS011;11023;48.274;7.794;2024-03-02T01:34:16;4.70;;;1.98;;
21721;SDS011;11023;48.274;7.794;2024-03-02T01:36:43;5.10;;;1.42;;
21721;SDS011;11023;48.274;7.794;2024-03-02T01:39:08;6.47;;;2.00;;
21721;SDS011;11023;48.274;7.794;2024-03-02T01:41:34;3.15;;;1.30;;
21721;SDS011;11023;48.274;7.794;2024-03-02T01:44:00;2.65;;;1.33;;
21721;SDS011;11023;48.274;7.794;2024-03-02T01:46:27;4.00;;;1.77;;
21721;SDS011;11023;48.274;7.794;2024-03-02T01:48:52;3.83;;;1.73;;
21721;SDS011;11023;48.274;7.794;2024-03-02T01:51:18;2.70;;;1.50;;
21721;SDS011;11023;48.274;7.794;2024-03-02T01:53:44;2.92;;;1.50;;
21721;SDS011;11023;48.274;7.794;2024-03-02T01:56:10;3.40;;;1.60;;
21721;SDS011;11023;48.274;7.794;2024-03-02T01:58:37;3.08;;;1.23;;
21721;SDS011;11023;48.274;7.794;2024-03-02T02:01:03;4.97;;;1.98;;
21721;SDS011;11023;48.274;7.794;2024-03-02T02:03:29;3.05;;;1.67;;
21721;SDS011;11023;48.274;7.794;2024-03-02T02:05:55;4.00;;;1.58;;
21721;SDS011;11023;48.274;7.794;2024-03-02T02:08:22;3.60;;;1.73;;
21721;SDS011;11023;48.274;7.794;2024-03-02T02:10:48;4.15;;;1.67;;
21721;SDS011;11023;48.274;7.794;2024-03-02T02:13:14;2.90;;;1.58;;
21721;SDS011;11023;48.274;7.794;2024-03-02T02:15:39;2.58;;;1.17;;
21721;SDS011;11023;48.274;7.794;2024-03-02T02:18:05;3.17;;;1.30;;
21721;SDS011;11023;48.274;7.794;2024-03-02T02:20:31;3.40;;;1.80;;
21721;SDS011;11023;48.274;7.794;2024-03-02T02:25:34;1.98;;;1.40;;
21721;SDS011;11023;48.274;7.794;2024-03-02T02:28:01;3.40;;;1.77;;
21721;SDS011;11023;48.274;7.794;2024-03-02T02:30:29;2.13;;;1.60;;
21721;SDS011;11023;48.274;7.794;2024-03-02T02:32:56;2.63;;;1.55;;
21721;SDS011;11023;48.274;7.794;2024-03-02T02:35:23;2.25;;;1.40;;
21721;SDS011;11023;48.274;7.794;2024-03-02T02:37:53;2.83;;;1.27;;
21721;SDS011;11023;48.274;7.794;2024-03-02T02:40:20;1.75;;;1.33;;
21721;SDS011;11023;48.274;7.794;2024-03-02T02:42:46;3.40;;;1.42;;
21721;SDS011;11023;48.274;7.794;2024-03-02T02:45:12;3.15;;;1.63;;
21721;SDS011;11023;48.274;7.794;2024-03-02T02:47:39;2.97;;;1.63;;
21721;SDS011;11023;48.274;7.794;2024-03-02T02:50:10;2.58;;;1.30;;
21721;SDS011;11023;48.274;7.794;2024-03-02T02:52:37;3.15;;;1.23;;
21721;SDS011;11023;48.274;7.794;2024-03-02T02:55:05;1.27;;;1.08;;
21721;SDS011;11023;48.274;7.794;2024-03-02T02:57:35;2.35;;;1.17;;
21721;SDS011;11023;48.274;7.794;2024-03-02T03:00:10;2.92;;;1.30;;
21721;SDS011;11023;48.274;7.794;2024-03-02T03:02:43;1.52;;;1.38;;
21721;SDS011;11023;48.274;7.794;2024-03-02T03:07:41;1.85;;;1.27;;
21721;SDS011;11023;48.274;7.794;2024-03-02T03:10:09;3.45;;;1.30;;
21721;SDS011;11023;48.274;7.794;2024-03-02T03:12:35;2.20;;;1.52;;
21721;SDS011;11023;48.274;7.794;2024-03-02T03:15:02;2.35;;;1.20;;
21721;SDS011;11023;48.274;7.794;2024-03-02T03:17:29;3.00;;;1.73;;
21721;SDS011;11023;48.274;7.794;2024-03-02T03:19:55;4.47;;;1.75;;
21721;SDS011;11023;48.274;7.794;2024-03-02T03:22:21;2.42;;;1.13;;
21721;SDS011;11023;48.274;7.794;2024-03-02T03:24:47;1.60;;;1.10;;
21721;SDS011;11023;48.274;7.794;2024-03-02T03:27:13;4.55;;;1.55;;
21721;SDS011;11023;48.274;7.794;2024-03-02T03:29:39;2.65;;;1.40;;
21721;SDS011;11023;48.274;7.794;2024-03-02T03:32:05;2.00;;;1.27;;
21721;SDS011;11023;48.274;7.794;2024-03-02T03:34:35;2.05;;;1.30;;
21721;SDS011;11023;48.274;7.794;2024-03-02T03:37:00;2.75;;;1.38;;
21721;SDS011;11023;48.274;7.794;2024-03-02T03:39:28;4.38;;;2.03;;
21721;SDS011;11023;48.274;7.794;2024-03-02T03:41:53;3.08;;;1.38;;
21721;SDS011;11023;48.274;7.794;2024-03-02T03:44:19;3.42;;;1.85;;
21721;SDS011;11023;48.274;7.794;2024-03-02T03:46:46;2.65;;;1.65;;
21721;SDS011;11023;48.274;7.794;2024-03-02T03:49:12;2.35;;;1.52;;
21721;SDS011;11023;48.274;7.794;2024-03-02T03:51:37;2.63;;;1.58;;
21721;SDS011;11023;48.274;7.794;2024-03-02T03:54:03;2.60;;;1.20;;
21721;SDS011;11023;48.274;7.794;2024-03-02T03:56:29;2.90;;;1.73;;
21721;SDS011;11023;48.274;7.794;2024-03-02T03:58:55;4.93;;;1.85;;
21721;SDS011;11023;48.274;7.794;2024-03-02T04:01:21;3.55;;;1.60;;
21721;SDS011;11023;48.274;7.794;2024-03-02T04:03:49;2.92;;;1.75;;
21721;SDS011;11023;48.274;7.794;2024-03-02T04:06:17;3.38;;;1.65;;
21721;SDS011;11023;48.274;7.794;2024-03-02T04:08:43;4.35;;;2.20;;
21721;SDS011;11023;48.274;7.794;2024-03-02T04:11:09;4.95;;;2.47;;
21721;SDS011;11023;48.274;7.794;2024-03-02T04:13:35;4.35;;;1.88;;
21721;SDS011;11023;48.274;7.794;2024-03-02T04:16:01;2.15;;;1.50;;
21721;SDS011;11023;48.274;7.794;2024-03-02T04:18:26;3.13;;;1.48;;
21721;SDS011;11023;48.274;7.794;2024-03-02T04:20:53;3.22;;;1.70;;
21721;SDS011;11023;48.274;7.794;2024-03-02T04:23:19;5.13;;;2.00;;
21721;SDS011;11023;48.274;7.794;2024-03-02T04:25:44;1.88;;;1.60;;
21721;SDS011;11023;48.274;7.794;2024-03-02T04:28:10;2.92;;;1.30;;
21721;SDS011;11023;48.274;7.794;2024-03-02T04:30:37;1.95;;;1.25;;
21721;SDS011;11023;48.274;7.794;2024-03-02T04:33:03;1.95;;;1.13;;
21721;SDS011;11023;48.274;7.794;2024-03-02T04:35:30;5.57;;;1.70;;
21721;SDS011;11023;48.274;7.794;2024-03-02T04:37:58;3.22;;;1.85;;
21721;SDS011;11023;48.274;7.794;2024-03-02T04:40:24;2.10;;;1.40;;
21721;SDS011;11023;48.274;7.794;2024-03-02T04:42:49;1.67;;;1.20;;
21721;SDS011;11023;48.274;7.794;2024-03-02T04:45:21;4.00;;;1.67;;
21721;SDS011;11023;48.274;7.794;2024-03-02T04:47:46;2.28;;;1.48;;
21721;SDS011;11023;48.274;7.794;2024-03-02T04:50:15;1.92;;;1.25;;
21721;SDS011;11023;48.274;7.794;2024-03-02T04:52:41;2.80;;;1.40;;
21721;SDS011;11023;48.274;7.794;2024-03-02T04:55:08;2.08;;;1.38;;
21721;SDS011;11023;48.274;7.794;2024-03-02T04:57:52;2.92;;;1.38;;
21721;SDS011;11023;48.274;7.794;2024-03-02T05:00:19;3.17;;;1.80;;
21721;SDS011;11023;48.274;7.794;2024-03-02T05:02:45;1.77;;;1.48;;
21721;SDS011;11023;48.274;7.794;2024-03-02T05:05:11;3.85;;;1.30;;
21721;SDS011;11023;48.274;7.794;2024-03-02T05:07:38;2.17;;;1.42;;
21721;SDS011;11023;48.274;7.794;2024-03-02T05:10:03;2.30;;;1.35;;
21721;SDS011;11023;48.274;7.794;2024-03-02T05:12:29;3.45;;;1.70;;
21721;SDS011;11023;48.274;7.794;2024-03-02T05:15:05;5.40;;;1.87;;
21721;SDS011;11023;48.274;7.794;2024-03-02T05:17:32;3.20;;;2.08;;
21721;SDS011;11023;48.274;7.794;2024-03-02T05:19:58;4.55;;;2.03;;
21721;SDS011;11023;48.274;7.794;2024-03-02T05:22:24;2.70;;;1.52;;
21721;SDS011;11023;48.274;7.794;2024-03-02T05:24:50;3.60;;;1.95;;
21721;SDS011;11023;48.274;7.794;2024-03-02T05:27:15;2.13;;;1.83;;
21721;SDS011;11023;48.274;7.794;2024-03-02T05:29:41;3.92;;;1.83;;
21721;SDS011;11023;48.274;7.794;2024-03-02T05:32:07;4.90;;;2.20;;
21721;SDS011;11023;48.274;7.794;2024-03-02T05:34:33;6.25;;;2.38;;
21721;SDS011;11023;48.274;7.794;2024-03-02T05:37:00;2.88;;;1.30;;
21721;SDS011;11023;48.274;7.794;2024-03-02T05:39:27;2.38;;;1.42;;
21721;SDS011;11023;48.274;7.794;2024-03-02T05:41:54;3.80;;;1.98;;
21721;SDS011;11023;48.274;7.794;2024-03-02T05:44:19;2.38;;;1.63;;
21721;SDS011;11023;48.274;7.794;2024-03-02T05:46:45;3.72;;;1.67;;
21721;SDS011;11023;48.274;7.794;2024-03-02T05:49:11;1.90;;;1.38;;
21721;SDS011;11023;48.274;7.794;2024-03-02T05:51:37;2.13;;;1.23;;
21721;SDS011;11023;48.274;7.794;2024-03-02T05:54:03;2.38;;;1.65;;
21721;SDS011;11023;48.274;7.794;2024-03-02T05:56:28;2.67;;;1.60;;
21721;SDS011;11023;48.274;7.794;2024-03-02T05:58:54;2.55;;;1.48;;
21721;SDS011;11023;48.274;7.794;2024-03-02T06:01:33;3.45;;;1.83;;
21721;SDS011;11023;48.274;7.794;2024-03-02T06:03:59;2.58;;;1.50;;
21721;SDS011;11023;48.274;7.794;2024-03-02T06:06:26;3.40;;;1.90;;
21721;SDS011;11023;48.274;7.794;2024-03-02T06:08:52;4.03;;;1.50;;
21721;SDS011;11023;48.274;7.794;2024-03-02T06:11:21;3.72;;;1.98;;
21721;SDS011;11023;48.274;7.794;2024-03-02T06:13:47;4.43;;;2.55;;
21721;SDS011;11023;48.274;7.794;2024-03-02T06:16:12;4.20;;;2.40;;
21721;SDS011;11023;48.274;7.794;2024-03-02T06:18:40;6.75;;;3.22;;
21721;SDS011;11023;48.274;7.794;2024-03-02T06:21:06;4.97;;;2.70;;
21721;SDS011;11023;48.274;7.794;2024-03-02T06:23:31;2.58;;;2.20;;
21721;SDS011;11023;48.274;7.794;2024-03-02T06:25:57;2.95;;;1.92;;
21721;SDS011;11023;48.274;7.794;2024-03-02T06:28:23;5.80;;;2.72;;
21721;SDS011;11023;48.274;7.794;2024-03-02T06:30:49;5.68;;;2.58;;
21721;SDS011;11023;48.274;7.794;2024-03-02T06:33:14;4.43;;;2.20;;
21721;SDS011;11023;48.274;7.794;2024-03-02T06:35:41;3.63;;;2.53;;
21721;SDS011;11023;48.274;7.794;2024-03-02T06:38:07;7.05;;;2.70;;
21721;SDS011;11023;48.274;7.794;2024-03-02T06:40:32;7.07;;;2.70;;
21721;SDS011;11023;48.274;7.794;2024-03-02T06:42:59;6.07;;;2.88;;
21721;SDS011;11023;48.274;7.794;2024-03-02T06:45:24;4.95;;;2.50;;
21721;SDS011;11023;48.274;7.794;2024-03-02T06:47:51;5.15;;;2.85;;
21721;SDS011;11023;48.274;7.794;2024-03-02T06:50:17;5.95;;;2.97;;
21721;SDS011;11023;48.274;7.794;2024-03-02T06:52:44;4.10;;;2.65;;
21721;SDS011;11023;48.274;7.794;2024-03-02T06:55:12;5.45;;;3.05;;
21721;SDS011;11023;48.274;7.794;2024-03-02T06:57:38;8.82;;;2.97;;
21721;SDS011;11023;48.274;7.794;2024-03-02T07:00:05;4.95;;;2.53;;
21721;SDS011;11023;48.274;7.794;2024-03-02T07:02:33;5.78;;;2.35;;
21721;SDS011;11023;48.274;7.794;2024-03-02T07:05:01;3.17;;;2.13;;
21721;SDS011;11023;48.274;7.794;2024-03-02T07:07:28;2.78;;;1.80;;
21721;SDS011;11023;48.274;7.794;2024-03-02T07:09:54;3.90;;;2.33;;
21721;SDS011;11023;48.274;7.794;2024-03-02T07:12:20;3.50;;;1.83;;
21721;SDS011;11023;48.274;7.794;2024-03-02T07:14:47;6.90;;;1.90;;
21721;SDS011;11023;48.274;7.794;2024-03-02T07:17:36;2.80;;;1.77;;
21721;SDS011;11023;48.274;7.794;2024-03-02T07:20:03;5.38;;;1.80;;
21721;SDS011;11023;48.274;7.794;2024-03-02T07:22:29;4.07;;;2.30;;
21721;SDS011;11023;48.274;7.794;2024-03-02T07:24:55;4.60;;;2.35;;
21721;SDS011;11023;48.274;7.794;2024-03-02T07:27:21;3.88;;;2.15;;
21721;SDS011;11023;48.274;7.794;2024-03-02T07:29:47;3.45;;;2.20;;
21721;SDS011;11023;48.274;7.794;2024-03-02T07:32:12;4.40;;;2.42;;
21721;SDS011;11023;48.274;7.794;2024-03-02T07:34:38;6.88;;;3.85;;
21721;SDS011;11023;48.274;7.794;2024-03-02T07:37:05;6.88;;;3.25;;
21721;SDS011;11023;48.274;7.794;2024-03-02T07:39:31;6.88;;;3.20;;
21721;SDS011;11023;48.274;7.794;2024-03-02T07:41:57;5.25;;;2.60;;
21721;SDS011;11023;48.274;7.794;2024-03-02T07:44:27;3.30;;;2.15;;
21721;SDS011;11023;48.274;7.794;2024-03-02T07:46:53;3.08;;;1.95;;
21721;SDS011;11023;48.274;7.794;2024-03-02T07:49:19;5.28;;;2.63;;
21721;SDS011;11023;48.274;7.794;2024-03-02T07:51:45;4.75;;;2.60;;
21721;SDS011;11023;48.274;7.794;2024-03-02T07:54:11;3.72;;;2.03;;
21721;SDS011;11023;48.274;7.794;2024-03-02T07:56:36;4.50;;;2.17;;
21721;SDS011;11023;48.274;7.794;2024-03-02T07:59:02;6.07;;;3.25;;
21721;SDS011;11023;48.274;7.794;2024-03-02T08:01:29;5.35;;;2.83;;
21721;SDS011;11023;48.274;7.794;2024-03-02T08:04:00;4.72;;;2.72;;
21721;SDS011;11023;48.274;7.794;2024-03-02T08:06:28;6.80;;;3.88;;
21721;SDS011;11023;48.274;7.794;2024-03-02T08:08:56;5.57;;;3.33;;
21721;SDS011;11023;48.274;7.794;2024-03-02T08:11:23;5.32;;;2.60;;
21721;SDS011;11023;48.274;7.794;2024-03-02T08:13:49;4.93;;;2.60;;
21721;SDS011;11023;48.274;7.794;2024-03-02T08:16:15;4.43;;;2.25;;
21721;SDS011;11023;48.274;7.794;2024-03-02T08:18:49;4.43;;;2.45;;
21721;SDS011;11023;48.274;7.794;2024-03-02T08:21:15;6.72;;;2.55;;
21721;SDS011;11023;48.274;7.794;2024-03-02T08:23:42;4.82;;;2.92;;
21721;SDS011;11023;48.274;7.794;2024-03-02T08:26:08;7.30;;;2.65;;
21721;SDS011;11023;48.274;7.794;2024-03-02T08:28:35;7.03;;;2.60;;
21721;SDS011;11023;48.274;7.794;2024-03-02T08:31:06;5.50;;;2.63;;
21721;SDS011;11023;48.274;7.794;2024-03-02T08:33:32;5.40;;;2.55;;
21721;SDS011;11023;48.274;7.794;2024-03-02T08:35:59;2.88;;;2.30;;
21721;SDS011;11023;48.274;7.794;2024-03-02T08:38:25;4.80;;;2.53;;
21721;SDS011;11023;48.274;7.794;2024-03-02T08:40:51;4.93;;;2.45;;
21721;SDS011;11023;48.274;7.794;2024-03-02T08:43:18;6.28;;;2.75;;
21721;SDS011;11023;48.274;7.794;2024-03-02T08:45:44;7.35;;;3.13;;
21721;SDS011;11023;48.274;7.794;2024-03-02T08:48:12;5.07;;;2.50;;
21721;SDS011;11023;48.274;7.794;2024-03-02T08:50:39;4.35;;;2.58;;
21721;SDS011;11023;48.274;7.794;2024-03-02T08:53:04;3.75;;;2.33;;
21721;SDS011;11023;48.274;7.794;2024-03-02T08:55:30;5.35;;;3.08;;
21721;SDS011;11023;48.274;7.794;2024-03-02T08:57:56;6.72;;;2.70;;
21721;SDS011;11023;48.274;7.794;2024-03-02T09:00:22;7.68;;;3.28;;
21721;SDS011;11023;48.274;7.794;2024-03-02T09:02:48;5.13;;;2.70;;
21721;SDS011;11023;48.274;7.794;2024-03-02T09:05:14;4.47;;;2.40;;
21721;SDS011;11023;48.274;7.794;2024-03-02T09:07:41;4.88;;;2.75;;
21721;SDS011;11023;48.274;7.794;2024-03-02T09:10:07;4.80;;;3.00;;
21721;SDS011;11023;48.274;7.794;2024-03-02T09:12:33;4.20;;;2.85;;
21721;SDS011;11023;48.274;7.794;2024-03-02T09:15:00;6.40;;;2.83;;
21721;SDS011;11023;48.274;7.794;2024-03-02T09:17:26;8.23;;;3.10;;
21721;SDS011;11023;48.274;7.794;2024-03-02T09:19:53;11.52;;;3.90;;
21721;SDS011;11023;48.274;7.794;2024-03-02T09:22:19;6.47;;;3.65;;
21721;SDS011;11023;48.274;7.794;2024-03-02T09:24:45;7.70;;;4.03;;
21721;SDS011;11023;48.274;7.794;2024-03-02T09:27:11;8.15;;;4.38;;
21721;SDS011;11023;48.274;7.794;2024-03-02T09:29:37;15.48;;;4.88;;
21721;SDS011;11023;48.274;7.794;2024-03-02T09:32:05;10.60;;;5.28;;
21721;SDS011;11023;48.274;7.794;2024-03-02T09:34:31;11.02;;;4.18;;
21721;SDS011;11023;48.274;7.794;2024-03-02T09:36:57;8.95;;;4.25;;
21721;SDS011;11023;48.274;7.794;2024-03-02T09:39:23;7.63;;;4.82;;
21721;SDS011;11023;48.274;7.794;2024-03-02T09:41:50;8.77;;;4.15;;
21721;SDS011;11023;48.274;7.794;2024-03-02T09:44:16;7.70;;;4.13;;
21721;SDS011;11023;48.274;7.794;2024-03-02T09:46:43;7.47;;;3.20;;
21721;SDS011;11023;48.274;7.794;2024-03-02T09:49:11;5.82;;;3.33;;
21721;SDS011;11023;48.274;7.794;2024-03-02T09:51:39;8.60;;;3.70;;
21721;SDS011;11023;48.274;7.794;2024-03-02T09:54:07;5.15;;;3.58;;
21721;SDS011;11023;48.274;7.794;2024-03-02T09:56:33;5.25;;;2.80;;
21721;SDS011;11023;48.274;7.794;2024-03-02T09:58:59;4.38;;;2.45;;
21721;SDS011;11023;48.274;7.794;2024-03-02T10:01:27;7.43;;;3.28;;
21721;SDS011;11023;48.274;7.794;2024-03-02T10:03:53;6.65;;;3.08;;
21721;SDS011;11023;48.274;7.794;2024-03-02T10:06:23;4.68;;;2.70;;
21721;SDS011;11023;48.274;7.794;2024-03-02T10:08:51;4.15;;;2.80;;
21721;SDS011;11023;48.274;7.794;2024-03-02T10:11:30;5.32;;;2.97;;
21721;SDS011;11023;48.274;7.794;2024-03-02T10:14:08;5.55;;;3.03;;
21721;SDS011;11023;48.274;7.794;2024-03-02T10:16:39;6.70;;;2.83;;
21721;SDS011;11023;48.274;7.794;2024-03-02T10:19:15;4.63;;;2.08;;
21721;SDS011;11023;48.274;7.794;2024-03-02T10:21:42;4.80;;;2.15;;
21721;SDS011;11023;48.274;7.794;2024-03-02T10:24:09;3.80;;;2.13;;
21721;SDS011;11023;48.274;7.794;2024-03-02T10:26:35;3.22;;;1.80;;
21721;SDS011;11023;48.274;7.794;2024-03-02T10:29:00;3.60;;;1.95;;
21721;SDS011;11023;48.274;7.794;2024-03-02T10:31:27;4.03;;;2.00;;
21721;SDS011;11023;48.274;7.794;2024-03-02T10:33:57;3.17;;;2.10;;
21721;SDS011;11023;48.274;7.794;2024-03-02T10:36:23;3.45;;;1.83;;
21721;SDS011;11023;48.274;7.794;2024-03-02T10:38:51;4.40;;;2.88;;
21721;SDS011;11023;48.274;7.794;2024-03-02T10:41:22;3.92;;;2.38;;
21721;SDS011;11023;48.274;7.794;2024-03-02T10:43:52;2.95;;;1.45;;
21721;SDS011;11023;48.274;7.794;2024-03-02T10:46:27;2.22;;;1.40;;
21721;SDS011;11023;48.274;7.794;2024-03-02T10:48:57;2.30;;;1.63;;
21721;SDS011;11023;48.274;7.794;2024-03-02T10:51:27;5.55;;;1.48;;
21721;SDS011;11023;48.274;7.794;2024-03-02T10:53:56;4.50;;;1.27;;
21721;SDS011;11023;48.274;7.794;2024-03-02T11:01:50;1.63;;;1.02;;
21721;SDS011;11023;48.274;7.794;2024-03-02T11:04:18;1.90;;;1.23;;
21721;SDS011;11023;48.274;7.794;2024-03-02T11:06:49;4.45;;;1.23;;
21721;SDS011;11023;48.274;7.794;2024-03-02T11:09:16;1.40;;;1.00;;
21721;SDS011;11023;48.274;7.794;2024-03-02T11:11:45;6.32;;;1.40;;
21721;SDS011;11023;48.274;7.794;2024-03-02T11:14:18;1.05;;;0.95;;
21721;SDS011;11023;48.274;7.794;2024-03-02T11:16:49;1.05;;;0.77;;
21721;SDS011;11023;48.274;7.794;2024-03-02T11:19:16;2.33;;;1.00;;
21721;SDS011;11023;48.274;7.794;2024-03-02T11:21:43;1.83;;;1.10;;
21721;SDS011;11023;48.274;7.794;2024-03-02T11:24:43;1.95;;;0.85;;
21721;SDS011;11023;48.274;7.794;2024-03-02T11:27:02;0.40;;;0.30;;
21721;SDS011;11023;48.274;7.794;2024-03-02T11:29:47;1.38;;;0.70;;
21721;SDS011;11023;48.274;7.794;2024-03-02T11:32:16;0.60;;;0.40;;
21721;SDS011;11023;48.274;7.794;2024-03-02T11:34:51;0.55;;;0.50;;
21721;SDS011;11023;48.274;7.794;2024-03-02T11:37:17;1.23;;;0.50;;
21721;SDS011;11023;48.274;7.794;2024-03-02T11:39:45;3.50;;;0.43;;
21721;SDS011;11023;48.274;7.794;2024-03-02T11:42:12;1.63;;;0.45;;
21721;SDS011;11023;48.274;7.794;2024-03-02T11:44:39;1.52;;;0.32;;
21721;SDS011;11023;48.274;7.794;2024-03-02T11:47:16;0.60;;;0.35;;
21721;SDS011;11023;48.274;7.794;2024-03-02T11:49:53;2.53;;;0.50;;
21721;SDS011;11023;48.274;7.794;2024-03-02T11:52:19;3.60;;;0.40;;
21721;SDS011;11023;48.274;7.794;2024-03-02T11:54:47;0.20;;;0.20;;
21721;SDS011;11023;48.274;7.794;2024-03-02T11:57:17;0.22;;;0.22;;
21721;SDS011;11023;48.274;7.794;2024-03-02T11:59:44;0.95;;;0.45;;
21721;SDS011;11023;48.274;7.794;2024-03-02T12:02:28;2.08;;;0.30;;
21721;SDS011;11023;48.274;7.794;2024-03-02T12:04:54;0.88;;;0.50;;
21721;SDS011;11023;48.274;7.794;2024-03-02T12:07:21;0.35;;;0.32;;
21721;SDS011;11023;48.274;7.794;2024-03-02T12:09:48;0.65;;;0.40;;
21721;SDS011;11023;48.274;7.794;2024-03-02T12:12:15;1.02;;;0.82;;
21721;SDS011;11023;48.274;7.794;2024-03-02T12:14:52;0.95;;;0.40;;
21721;SDS011;11023;48.274;7.794;2024-03-02T12:17:20;0.50;;;0.50;;
21721;SDS011;11023;48.274;7.794;2024-03-02T12:19:46;0.30;;;0.30;;
21721;SDS011;11023;48.274;7.794;2024-03-02T12:22:12;0.90;;;0.70;;
21721;SDS011;11023;48.274;7.794;2024-03-02T12:24:38;5.13;;;2.13;;
21721;SDS011;11023;48.274;7.794;2024-03-02T12:27:04;5.57;;;1.65;;
21721;SDS011;11023;48.274;7.794;2024-03-02T12:29:32;3.08;;;1.10;;
21721;SDS011;11023;48.274;7.794;2024-03-02T12:31:59;1.98;;;0.40;;
21721;SDS011;11023;48.274;7.794;2024-03-02T12:34:26;2.05;;;0.85;;
21721;SDS011;11023;48.274;7.794;2024-03-02T12:36:52;0.63;;;0.40;;
21721;SDS011;11023;48.274;7.794;2024-03-02T12:39:18;1.20;;;0.90;;
21721;SDS011;11023;48.274;7.794;2024-03-02T12:41:45;1.20;;;0.77;;
21721;SDS011;11023;48.274;7.794;2024-03-02T12:44:11;0.57;;;0.45;;
21721;SDS011;11023;48.274;7.794;2024-03-02T12:46:37;0.75;;;0.57;;
21721;SDS011;11023;48.274;7.794;2024-03-02T12:49:10;0.68;;;0.50;;
21721;SDS011;11023;48.274;7.794;2024-03-02T12:51:37;0.60;;;0.60;;
21721;SDS011;11023;48.274;7.794;2024-03-02T12:54:07;3.70;;;1.50;;
21721;SDS011;11023;48.274;7.794;2024-03-02T12:56:35;1.35;;;1.00;;
21721;SDS011;11023;48.274;7.794;2024-03-02T12:59:02;0.85;;;0.77;;
21721;SDS011;11023;48.274;7.794;2024-03-02T13:01:28;0.60;;;0.60;;
21721;SDS011;11023;48.274;7.794;2024-03-02T13:03:54;0.40;;;0.38;;
21721;SDS011;11023;48.274;7.794;2024-03-02T13:06:21;0.75;;;0.57;;
21721;SDS011;11023;48.274;7.794;2024-03-02T13:08:47;1.23;;;0.70;;
21721;SDS011;11023;48.274;7.794;2024-03-02T13:11:13;1.50;;;0.63;;
21721;SDS011;11023;48.274;7.794;2024-03-02T13:13:39;1.75;;;0.65;;
21721;SDS011;11023;48.274;7.794;2024-03-02T13:16:09;0.70;;;0.50;;
21721;SDS011;11023;48.274;7.794;2024-03-02T13:18:35;1.95;;;0.93;;
21721;SDS011;11023;48.274;7.794;2024-03-02T13:21:01;0.95;;;0.80;;
21721;SDS011;11023;48.274;7.794;2024-03-02T13:23:27;1.48;;;0.95;;
21721;SDS011;11023;48.274;7.794;2024-03-02T13:25:55;1.10;;;0.77;;
21721;SDS011;11023;48.274;7.794;2024-03-02T13:28:23;0.68;;;0.55;;
21721;SDS011;11023;48.274;7.794;2024-03-02T13:30:49;0.98;;;0.50;;
21721;SDS011;11023;48.274;7.794;2024-03-02T13:33:14;0.43;;;0.40;;
21721;SDS011;11023;48.274;7.794;2024-03-02T13:35:40;1.27;;;0.40;;
21721;SDS011;11023;48.274;7.794;2024-03-02T13:38:06;0.47;;;0.30;;
21721;SDS011;11023;48.274;7.794;2024-03-02T13:40:31;0.35;;;0.30;;
21721;SDS011;11023;48.274;7.794;2024-03-02T13:43:00;0.22;;;0.22;;
21721;SDS011;11023;48.274;7.794;2024-03-02T13:45:27;0.73;;;0.30;;
21721;SDS011;11023;48.274;7.794;2024-03-02T13:47:53;0.70;;;0.30;;
21721;SDS011;11023;48.274;7.794;2024-03-02T13:50:18;0.30;;;0.30;;
21721;SDS011;11023;48.274;7.794;2024-03-02T13:52:45;0.65;;;0.32;;
21721;SDS011;11023;48.274;7.794;2024-03-02T13:55:10;0.45;;;0.30;;
21721;SDS011;11023;48.274;7.794;2024-03-02T13:57:36;0.75;;;0.30;;
21721;SDS011;11023;48.274;7.794;2024-03-02T14:00:02;0.85;;;0.40;;
21721;SDS011;11023;48.274;7.794;2024-03-02T14:02:28;0.55;;;0.25;;
21721;SDS011;11023;48.274;7.794;2024-03-02T14:04:54;0.25;;;0.20;;
21721;SDS011;11023;48.274;7.794;2024-03-02T14:07:20;0.52;;;0.30;;
21721;SDS011;11023;48.274;7.794;2024-03-02T14:09:45;3.50;;;0.40;;
21721;SDS011;11023;48.274;7.794;2024-03-02T14:12:11;0.43;;;0.20;;
21721;SDS011;11023;48.274;7.794;2024-03-02T14:14:38;0.88;;;0.30;;
21721;SDS011;11023;48.274;7.794;2024-03-02T14:17:04;0.50;;;0.30;;
21721;SDS011;11023;48.274;7.794;2024-03-02T14:19:31;0.75;;;0.40;;
21721;SDS011;11023;48.274;7.794;2024-03-02T14:21:57;0.40;;;0.40;;
21721;SDS011;11023;48.274;7.794;2024-03-02T14:24:23;1.52;;;0.50;;
21721;SDS011;11023;48.274;7.794;2024-03-02T14:26:51;0.88;;;0.50;;
21721;SDS011;11023;48.274;7.794;2024-03-02T14:29:17;0.50;;;0.50;;
21721;SDS011;11023;48.274;7.794;2024-03-02T14:31:43;1.27;;;0.28;;
21721;SDS011;11023;48.274;7.794;2024-03-02T14:34:12;0.55;;;0.40;;
21721;SDS011;11023;48.274;7.794;2024-03-02T14:36:40;0.75;;;0.38;;
21721;SDS011;11023;48.274;7.794;2024-03-02T14:39:08;0.55;;;0.30;;
21721;SDS011;11023;48.274;7.794;2024-03-02T14:41:35;0.20;;;0.20;;
21721;SDS011;11023;48.274;7.794;2024-03-02T14:44:01;1.10;;;0.40;;
21721;SDS011;11023;48.274;7.794;2024-03-02T14:46:27;5.40;;;3.40;;
21721;SDS011;11023;48.274;7.794;2024-03-02T14:48:52;70.28;;;27.75;;
21721;SDS011;11023;48.274;7.794;2024-03-02T14:51:18;36.50;;;16.60;;
21721;SDS011;11023;48.274;7.794;2024-03-02T14:53:44;99.90;;;42.53;;
21721;SDS011;11023;48.274;7.794;2024-03-02T14:56:09;37.17;;;18.45;;
21721;SDS011;11023;48.274;7.794;2024-03-02T14:58:35;11.00;;;6.38;;
21721;SDS011;11023;48.274;7.794;2024-03-02T15:01:02;2.80;;;2.45;;
21721;SDS011;11023;48.274;7.794;2024-03-02T15:03:28;3.80;;;1.30;;